• Join FlightAware (Why Join?)
  • Login
  • US Flag 
06:41PM EST


 

Airport Tracker/Info


-or-


 

Live Flight TrackerFlight Track Log ✈ N911PJ ✈ 15-Sep-2013 ✈ KOLM - KRAP

Flight Track Log - Related Links

Times and Time Zones

All times are in EDT time to prevent confusion due to time zone crossing. See the N911PJ flight status page for this flight to view local times or setup timezone preferences in your user account.

Time Position Orientation Groundspeed Altitude Reporting Facility
EDT Latitude Longitude Course Direction KTS MPH feet Rate Location/Type
01:53PM 46.9417 -122.8358 68° East 175 201 3,200  Level Seattle Center
01:54PM 46.9533 -122.7939 68° East 184 212 3,900 1,380 Climbing Seattle Center
01:55PM 46.9653 -122.7189 77° East 184 212 5,400 1,440 Climbing Seattle Center
01:55PM 46.9656 -122.7192 326° Northwest 186 214 5,400 1,320 Level Seattle Center
01:56PM 46.9825 -122.6503 70° East 181 208 6,800 1,140 Climbing Seattle Center
01:57PM 46.9836 -122.5817 89° East 187 215 7,700 900 Climbing Seattle Center
01:58PM 46.9444 -122.5350 141° Southeast 171 197 8,700 780 Climbing Seattle Center
01:59PM 46.9086 -122.4828 135° Southeast 181 208 9,300 780 Climbing Seattle Center
02:00PM 46.8750 -122.4256 131° Southeast 184 212 10,300 960 Climbing Seattle Center
02:01PM 46.8364 -122.3722 137° Southeast 192 221 11,300 1,020 Climbing Seattle Center
02:02PM 46.7881 -122.3292 149° Southeast 190 219 12,400 840 Climbing Seattle Center
02:03PM 46.7428 -122.2886 148° Southeast 192 221 13,100 660 Climbing Seattle Center
02:04PM 46.7008 -122.2531 150° Southeast 196 226 13,800 780 Climbing Seattle Center
02:05PM 46.6542 -122.2119 149° Southeast 198 228 14,700 540 Climbing Seattle Center
02:06PM 46.5981 -122.1603 148° Southeast 201 231 15,000 180 Climbing Seattle Center
02:07PM 46.5875 -122.0686 99° East 235 270 15,100  Climbing Seattle Center
02:08PM 46.5831 -121.9783 94° East 229 264 15,100  Level Seattle Center
02:09PM 46.5781 -121.8864 94° East 230 265 15,100  Level Seattle Center
02:10PM 46.5747 -121.7972 93° East 226 260 15,200 360 Climbing Seattle Center
02:11PM 46.5711 -121.7119 93° East 217 250 15,900 900 Climbing Seattle Center
02:12PM 46.5647 -121.6094 95° East 215 247 17,100 1,020 Climbing Seattle Center
02:13PM 46.5608 -121.5175 93° East 222 255 18,000 960 Climbing Seattle Center
02:14PM 46.5556 -121.4272 95° East 225 259 19,100 840 Climbing Seattle Center
02:15PM 46.5508 -121.3372 94° East 224 258 19,800 720 Climbing Seattle Center
02:16PM 46.5461 -121.2436 94° East 230 265 20,600 720 Climbing Seattle Center
02:17PM 46.5406 -121.1511 95° East 231 266 21,300 660 Climbing Seattle Center
02:18PM 46.5344 -121.0567 95° East 233 268 22,000 720 Climbing Seattle Center
02:19PM 46.5300 -120.9600 94° East 237 273 22,800 720 Climbing Seattle Center
02:20PM 46.5247 -120.8661 95° East 233 268 23,500 600 Climbing Seattle Center
02:21PM 46.5186 -120.7717 95° East 235 270 24,100 600 Climbing Seattle Center
02:22PM 46.5128 -120.6564 94° East 239 275 24,800 600 Climbing Seattle Center
02:23PM 46.5067 -120.5619 95° East 237 273 25,400 540 Climbing Seattle Center
02:24PM 46.5017 -120.4686 94° East 233 268 25,900 480 Climbing Seattle Center
02:25PM 46.4958 -120.3747 95° East 233 268 26,400 480 Climbing Seattle Center
02:26PM 46.4894 -120.2783 95° East 237 273 26,900 240 Climbing Seattle Center
02:27PM 46.4833 -120.1792 95° East 244 281 27,000  Climbing Seattle Center
02:28PM 46.4761 -120.0772 96° East 253 291 27,000  Level Seattle Center
02:29PM 46.4706 -119.9744 94° East 255 293 27,000  Level Seattle Center
02:30PM 46.4633 -119.8736 96° East 254 292 27,000  Level Seattle Center
02:32PM 46.4564 -119.7742 96° East 251 289 27,000  Level Seattle Center
02:33PM 46.4486 -119.6519 95° East 253 291 27,000  Level Seattle Center
02:34PM 46.4411 -119.5492 96° East 256 295 27,000  Level Seattle Center
02:35PM 46.4344 -119.4464 95° East 255 293 27,000  Level Seattle Center
02:36PM 46.4272 -119.3464 96° East 251 289 27,000  Level Seattle Center
02:37PM 46.4214 -119.2494 95° East 246 283 27,000  Level Seattle Center
02:38PM 46.4136 -119.1536 97° East 240 276 27,000  Level Seattle Center
02:39PM 46.4061 -119.0556 96° East 245 282 27,000  Level Seattle Center
02:40PM 46.4003 -118.9558 95° East 249 287 27,000  Level Seattle Center
02:41PM 46.3922 -118.8492 96° East 246 283 27,000  Level Seattle Center
02:42PM 46.3847 -118.7519 96° East 245 282 27,000  Level Seattle Center
02:43PM 46.3769 -118.6533 96° East 247 284 27,000  Level Seattle Center
02:44PM 46.3697 -118.5556 96° East 246 283 27,000  Level Seattle Center
02:45PM 46.3619 -118.4567 96° East 248 285 27,000  Level Seattle Center
02:46PM 46.3542 -118.3592 97° East 247 284 27,000  Level Seattle Center
02:47PM 46.3458 -118.2411 96° East 247 284 27,000  Level Seattle Center
02:48PM 46.3367 -118.1419 98° East 249 287 27,000  Level Seattle Center
02:49PM 46.3292 -118.0464 96° East 243 280 27,000  Level Seattle Center
02:50PM 46.3211 -117.9486 97° East 244 281 27,000  Level Seattle Center
02:51PM 46.3136 -117.8539 97° East 240 276 27,000  Level Seattle Center
02:52PM 46.3050 -117.7575 97° East 242 278 27,000  Level Seattle Center
02:53PM 46.2967 -117.6578 97° East 247 284 27,000  Level Seattle Center
02:54PM 46.2881 -117.5619 97° East 243 280 27,000  Level Seattle Center
02:55PM 46.2783 -117.4478 97° East 241 277 27,000  Level Seattle Center
02:56PM 46.2694 -117.3528 98° East 240 276 27,000  Level Seattle Center
02:57PM 46.2614 -117.2572 97° East 240 276 27,000  Level Seattle Center
02:58PM 46.2528 -117.1636 98° East 239 275 27,000  Level Seattle Center
02:59PM 46.2444 -117.0681 97° East 240 276 27,000  Level Seattle Center
03:00PM 46.2356 -116.9725 98° East 241 277 27,000  Level Seattle Center
03:01PM 46.2264 -116.8756 98° East 244 281 27,000  Level Seattle Center
03:02PM 46.2175 -116.7794 98° East 244 281 27,000  Level Seattle Center
03:03PM 46.2083 -116.6836 98° East 243 280 27,000  Level Seattle Center
03:04PM 46.1972 -116.5658 98° East 247 284 27,000  Level Seattle Center
03:05PM 46.1886 -116.4664 97° East 250 288 27,000  Level Seattle Center
03:06PM 46.1786 -116.3708 99° East 244 281 27,000  Level Seattle Center
03:07PM 46.1689 -116.2742 98° East 243 280 27,000  Level Seattle Center
03:08PM 46.1600 -116.1747 97° East 249 287 27,000  Level Seattle Center
03:09PM 46.1500 -116.0781 98° East 246 283 27,000  Level Seattle Center
03:10PM 46.1397 -115.9789 98° East 248 285 27,000  Level Seattle Center
03:11PM 46.1303 -115.8842 98° East 243 280 27,000  Level Seattle Center
03:12PM 46.1183 -115.7656 98° East 249 287 27,000  Level Seattle Center
03:13PM 46.1086 -115.6686 98° East 247 284 27,000  Level Seattle Center
03:14PM 46.0981 -115.5717 99° East 247 284 27,000  Level Seattle Center
03:15PM 46.0878 -115.4742 99° East 246 283 27,000  Level Seattle Center
03:16PM 46.0775 -115.3800 99° East 241 277 27,000  Level Seattle Center
03:17PM 46.0725 -115.3300 98° East 241 277 27,000  Level Salt Lake Center
03:18PM 46.0625 -115.2331 98° East 244 281 27,000  Level Salt Lake Center
03:19PM 46.0519 -115.1378 99° East 242 278 27,000  Level Salt Lake Center
03:20PM 46.0383 -115.0203 99° East 245 282 27,000  Level Salt Lake Center
03:21PM 46.0289 -114.9219 98° East 249 287 27,000  Level Salt Lake Center
03:22PM 46.0175 -114.8236 99° East 248 285 27,000  Level Salt Lake Center
03:23PM 46.0067 -114.7256 99° East 249 287 27,000  Level Salt Lake Center
03:24PM 45.9958 -114.6275 99° East 248 285 27,000  Level Salt Lake Center
03:25PM 45.9839 -114.5322 100° East 244 281 27,000  Level Salt Lake Center
03:26PM 45.9717 -114.4161 99° East 244 281 27,000  Level Salt Lake Center
03:27PM 45.9625 -114.3378 100° East 241 277 27,000  Level Salt Lake Center
03:28PM 45.9486 -114.2253 100° East 239 275 27,000  Level Salt Lake Center
03:29PM 45.9381 -114.1286 99° East 243 280 27,000  Level Salt Lake Center
03:30PM 45.9264 -114.0331 100° East 245 282 27,000  Level Salt Lake Center
03:31PM 45.9139 -113.9364 100° East 247 284 27,000  Level Salt Lake Center
03:33PM 45.9033 -113.8392 99° East 248 285 27,000  Level Salt Lake Center
03:34PM 45.8914 -113.7453 100° East 241 277 27,000  Level Salt Lake Center
03:35PM 45.8767 -113.6275 100° East 241 277 27,000  Level Salt Lake Center
03:36PM 45.8633 -113.5308 101° East 243 280 27,000  Level Salt Lake Center
03:37PM 45.8522 -113.4336 99° East 243 280 27,000  Level Salt Lake Center
03:38PM 45.8392 -113.3358 101° East 246 283 27,000  Level Salt Lake Center
03:39PM 45.8272 -113.2372 100° East 247 284 27,000  Level Salt Lake Center
03:40PM 45.8139 -113.1386 101° East 249 287 27,000  Level Salt Lake Center
03:41PM 45.8033 -113.0406 99° East 245 282 27,000  Level Salt Lake Center
03:42PM 45.7894 -112.9350 101° East 247 284 27,000  Level Salt Lake Center
03:43PM 45.7767 -112.8375 101° East 245 282 27,000  Level Salt Lake Center
03:44PM 45.7642 -112.7408 100° East 244 281 27,100 240 Climbing Salt Lake Center
03:45PM 45.7522 -112.6475 100° East 237 273 27,600 480 Climbing Salt Lake Center
03:46PM 45.7389 -112.5539 102° East 236 272 28,100 420 Climbing Salt Lake Center
03:47PM 45.7272 -112.4592 100° East 238 274 28,500 420 Climbing Salt Lake Center
03:48PM 45.7128 -112.3583 102° East 237 273 29,000 -60 Climbing Salt Lake Center
03:49PM 45.7000 -112.2578 100° East 256 295 28,400 -660 Descending Salt Lake Center
03:50PM 45.6853 -112.1483 101° East 276 318 27,700 -780 Descending Salt Lake Center
03:51PM 45.6683 -112.0367 102° East 283 326 26,800 -900 Descending Salt Lake Center
03:52PM 45.6536 -111.9256 101° East 280 322 25,900 -780 Descending Salt Lake Center
03:53PM 45.6383 -111.8133 101° East 283 326 25,200 -480 Descending Salt Lake Center
03:54PM 45.6222 -111.6994 101° East 268 308 25,000 -120 Descending Salt Lake Center
03:55PM 45.6078 -111.6008 102° East 252 290 25,000  Level Salt Lake Center
03:56PM 45.5953 -111.5022 100° East 248 285 25,000  Level Salt Lake Center
03:57PM 45.5814 -111.4081 102° East 240 276 25,000  Level Salt Lake Center
03:58PM 45.5678 -111.3142 102° East 238 274 25,000  Level Salt Lake Center
03:59PM 45.5533 -111.2144 102° East 236 272 25,000  Level Salt Lake Center
04:00PM 45.5400 -111.1197 101° East 241 277 25,000  Level Salt Lake Center
04:01PM 45.5267 -111.0253 101° East 240 276 25,000  Level Salt Lake Center
04:02PM 45.5133 -110.9325 102° East 236 272 25,000  Level Salt Lake Center
04:03PM 45.4994 -110.8392 102° East 238 274 25,000  Level Salt Lake Center
04:04PM 45.4853 -110.7436 102° East 243 280 25,000  Level Salt Lake Center
04:06PM 45.4703 -110.6417 102° East 241 277 25,000  Level Salt Lake Center
04:07PM 45.4569 -110.5550 102° East 234 269 25,000  Level Salt Lake Center
04:08PM 45.4425 -110.4636 103° East 236 272 25,000  Level Salt Lake Center
04:09PM 45.4292 -110.3689 101° East 241 277 25,000  Level Salt Lake Center
04:10PM 45.4150 -110.2739 102° East 245 282 25,000  Level Salt Lake Center
04:11PM 45.3978 -110.1619 102° East 243 280 25,000  Level Salt Lake Center
04:12PM 45.3831 -110.0658 102° East 247 284 25,000  Level Salt Lake Center
04:13PM 45.3681 -109.9744 103° East 242 278 25,000  Level Salt Lake Center
04:14PM 45.3544 -109.8847 102° East 236 272 25,000  Level Salt Lake Center
04:15PM 45.3397 -109.7933 103° East 236 272 25,000  Level Salt Lake Center
04:16PM 45.3250 -109.7022 103° East 237 273 25,000  Level Salt Lake Center
04:17PM 45.3111 -109.6114 102° East 237 273 25,000  Level Salt Lake Center
04:18PM 45.2928 -109.5017 103° East 238 274 25,000  Level Salt Lake Center
04:19PM 45.2778 -109.4086 103° East 242 278 25,000  Level Salt Lake Center
04:20PM 45.2622 -109.3158 103° East 242 278 25,000  Level Salt Lake Center
04:21PM 45.2467 -109.2214 103° East 246 283 25,000  Level Salt Lake Center
04:22PM 45.2314 -109.1283 103° East 243 280 25,000  Level Salt Lake Center
04:23PM 45.2158 -109.0336 103° East 245 282 25,000  Level Salt Lake Center
04:24PM 45.1967 -108.9197 103° East 247 284 25,000  Level Salt Lake Center
04:25PM 45.1806 -108.8247 103° East 249 287 25,000  Level Salt Lake Center
04:26PM 45.1650 -108.7300 103° East 247 284 25,000  Level Salt Lake Center
04:27PM 45.1492 -108.6350 103° East 249 287 25,000  Level Salt Lake Center
04:28PM 45.1317 -108.5389 104° East 249 287 25,000  Level Salt Lake Center
04:29PM 45.1161 -108.4439 103° East 249 287 25,000  Level Salt Lake Center
04:30PM 45.1003 -108.3492 103° East 247 284 25,000  Level Salt Lake Center
04:31PM 45.0814 -108.2356 103° East 246 283 25,000  Level Salt Lake Center
04:32PM 45.0656 -108.1414 103° East 245 282 25,000  Level Salt Lake Center
04:33PM 45.0481 -108.0450 104° East 250 288 25,000  Level Salt Lake Center
04:34PM 45.0322 -107.9497 103° East 249 287 25,000  Level Salt Lake Center
04:35PM 45.0156 -107.8533 104° East 249 287 25,000  Level Salt Lake Center
04:36PM 44.9972 -107.7572 105° East 251 289 25,000  Level Salt Lake Center
04:37PM 44.9800 -107.6617 104° East 250 288 25,000  Level Salt Lake Center
04:39PM 44.9628 -107.5681 105° East 248 285 25,000  Level Salt Lake Center
04:40PM 44.9447 -107.4717 105° East 251 289 25,000  Level Salt Lake Center
04:41PM 44.9247 -107.3589 104° East 249 287 25,000  Level Salt Lake Center
04:42PM 44.9075 -107.2633 104° East 250 288 25,000  Level Salt Lake Center
04:43PM 44.8903 -107.1689 104° East 251 289 25,000  Level Salt Lake Center
04:44PM 44.8708 -107.0733 106° East 252 290 25,000  Level Salt Lake Center
04:45PM 44.8553 -106.9786 103° East 251 289 25,000  Level Salt Lake Center
04:46PM 44.8378 -106.8822 104° East 252 290 25,000  Level Salt Lake Center
04:47PM 44.8156 -106.7675 105° East 254 292 25,000  Level Salt Lake Center
04:48PM 44.7981 -106.6711 104° East 255 293 25,000  Level Salt Lake Center
04:49PM 44.7800 -106.5758 105° East 254 292 25,000  Level Salt Lake Center
04:50PM 44.7625 -106.4808 105° East 252 290 25,000  Level Salt Lake Center
04:51PM 44.7439 -106.3856 105° East 253 291 25,000  Level Salt Lake Center
04:52PM 44.7247 -106.2894 106° East 256 295 25,000  Level Salt Lake Center
04:53PM 44.7069 -106.1933 105° East 255 293 25,000  Level Salt Lake Center
04:54PM 44.6861 -106.0872 105° East 257 296 25,000  Level Salt Lake Center
04:55PM 44.6644 -105.9806 106° East 256 295 25,000  Level Salt Lake Center
04:56PM 44.6472 -105.8875 105° East 257 296 25,000  Level Salt Lake Center
04:57PM 44.6258 -105.7797 106° East 257 296 25,000  Level Salt Lake Center
04:58PM 44.6075 -105.6872 106° East 257 296 25,000  Level Salt Lake Center
04:59PM 44.5839 -105.5781 107° East 256 295 25,000  Level Denver Center
05:00PM 44.5650 -105.4814 105° East 257 296 25,000  Level Denver Center
05:01PM 44.5433 -105.3783 106° East 261 300 25,000  Level Denver Center
05:02PM 44.5250 -105.2867 106° East 258 297 25,000  Level Denver Center
05:04PM 44.4994 -105.1617 106° East 261 300 25,000  Level Denver Center
05:05PM 44.4833 -105.0847 106° East 258 297 25,000  Level Denver Center
05:06PM 44.4586 -104.9603 106° East 260 299 25,000  Level Denver Center
05:07PM 44.4381 -104.8675 107° East 259 298 25,000  Level Denver Center
05:08PM 44.4125 -104.7431 106° East 261 300 25,000 -180 Level Denver Center
05:09PM 44.3900 -104.6353 106° East 259 298 24,700 -660 Descending Denver Center
05:10PM 44.3692 -104.5372 107° East 270 311 23,700 -1,200 Descending Denver Center
05:11PM 44.3450 -104.4225 106° East 274 315 22,300 -1,260 Descending Denver Center
05:11PM 44.3328 -104.3886 117° Southeast 273 314 21,900 -1,200 Descending Denver Center
05:12PM 44.3211 -104.3325 106° East 268 308 21,200 -1,140 Descending Denver Center
05:12PM 44.3211 -104.3119 90° East 268 308 21,000 -1,200 Descending Denver Center
05:13PM 44.3022 -104.2400 110° East 260 299 20,000 -1,260 Descending Denver Center
05:13PM 44.2975 -104.2036 100° East 263 303 19,700 -1,380 Descending Denver Center
05:14PM 44.2744 -104.1442 118° Southeast 252 290 18,600 -1,500 Descending Denver Center
05:14PM 44.2700 -104.1203 105° East 256 295 18,200 -1,620 Descending Denver Center
05:15PM 44.2442 -104.0636 122° Southeast 248 285 17,000 -1,800 Descending Denver Center
05:15PM 44.2344 -104.0236 109° East 250 288 16,400 -2,040 Descending Denver Center
05:16PM 44.2103 -103.9722 123° Southeast 249 287 15,000 -1,800 Descending Denver Center
05:16PM 44.2031 -103.9403 107° East 251 289 14,600 -2,040 Descending Denver Center
05:17PM 44.1769 -103.8839 123° Southeast 249 287 13,000 -2,040 Descending Denver Center
05:17PM 44.1664 -103.8453 111° Southeast 251 289 12,500 -1,620 Descending Denver Center
05:18PM 44.1467 -103.8036 123° Southeast 246 283 11,400 -1,560 Descending Denver Center
05:18PM 44.1367 -103.7639 109° East 250 288 10,900 -1,020 Descending Denver Center
05:19PM 44.1175 -103.7172 120° Southeast 239 275 10,400 -720 Descending Denver Center
05:19PM 44.1044 -103.6711 112° Southeast 245 282 10,200 -420 Descending Denver Center
05:20PM 44.0931 -103.6356 114° Southeast 233 268 10,000 -240 Descending Denver Center
05:21PM 44.0806 -103.5919 112° Southeast 240 276 10,000  Level Denver Center
05:21PM 44.0667 -103.5544 117° Southeast 224 258 10,000  Level Denver Center
05:22PM 44.0539 -103.5044 110° East 232 267 10,000  Level Denver Center
05:22PM 44.0422 -103.4728 117° Southeast 216 249 10,000  Level Denver Center
05:23PM 44.0311 -103.4319 111° Southeast 224 258 10,000  Level Denver Center
05:23PM 44.0189 -103.3997 118° Southeast 217 250 10,000  Level Denver Center
05:24PM 44.0067 -103.3606 113° Southeast 219 252 10,000 -600 Level Denver Center
05:24PM 43.9908 -103.3222 120° Southeast 218 251 9,400 -1,380 Descending Denver Center
05:25PM 43.9778 -103.2758 111° Southeast 217 250 8,600 -1,320 Descending Denver Center
05:25PM 43.9650 -103.2469 122° Southeast 226 260 8,100 -900 Descending Denver Center
05:26PM 43.9461 -103.2097 125° Southeast 219 252 7,700 -540 Descending Denver Center
05:26PM 43.9261 -103.1842 137° Southeast 198 228 7,600 -120 Descending Denver Center
05:27PM 43.9047 -103.1472 129° Southeast 209 241 7,600 -240 Level Denver Center
05:27PM 43.8883 -103.1300 143° Southeast 182 209 7,400 -720 Descending Denver Center
05:28PM 43.8697 -103.0986 129° Southeast 195 224 6,900 -900 Descending Denver Center
05:28PM 43.8567 -103.0744 127° Southeast 198 228 6,500 -420 Descending Denver Center
05:29PM 43.8497 -103.0169 99° East 205 236 6,500 -540 Level Denver Center
05:29PM 43.8800 -103.0003 22° Northeast 184 212 5,900 -840 Descending Denver Center
05:30PM 43.9181 -102.9717 28° Northeast 159 183 5,300 -660 Descending Denver Center
05:31PM 43.9575 -102.9931 339° North 149 171 4,600 -660 Descending Denver Center
05:32PM 43.9936 -103.0211 331° Northwest 143 165 4,000 -600 Descending Denver Center
05:33PM 44.0222 -103.0422 332° Northwest 122 140 3,400 -600 Descending Denver Center